Decoded Metar for RPLB (OLONGAPO/SUBIC in PHILIPPINES) (IATA:N/A) | Meteo·Mobile Aviation Weather
aviador You're here:

RPLB Decoded Metar

OLONGAPO/SUBIC in PHILIPPINES
Report Time2018-08-22 05:00:00
UTC Time2018-08-22 05:38:33
Flight Rules vfr VFR
Wind240° at 13 kt
W.Decomp.*RWY 25: 12.8 kt HW 2 kt LCW
W.Rank240° ranks 12
Current wind is above 240° avg. (8.7)
Visibility8000 m
Phenomena:N/A
Clouds:Scattered 018 Hf
Broken 080 Hf
Expected CloudBase > 1,200 ft AGL from Temp-Dew spread
Ceiling8,000 ft
Temp29°C (ISA +14)
Dew Point26°C (84% RH)
Heat Index35.6°C
QNH1006 hPa
Density Alt2,352 ft
Elevation56 ft
Report Wrong Elevation
Raw Report
METAR RPLB 220500Z 24013KT 8000 SCT018 BKN080 29/26 Q1006 NOSIG RMK
A2971=

Extra information for RPLB:More info

Metar Taf Metar & Taf Last 4 Metars F.Rules Stats Wind Profile Meteogram Temp Stats Airport Information Weather charts Add Link Nearby VenuesMetar ALERT Operation Metar Decoded Social comments